Time;durP1;ratioP1;P1;durP2;ratioP2;P2;SDS_P1;SDS_P2;PMS_P1;PMS_P2;Temp;Humidity;BMP_temperature;BMP_pressure;BME280_temperature;BME280_humidity;BME280_pressure;Samples;Min_cycle;Max_cycle;Signal;HPM_P1;HPM_P2
2021/06/30 00:02:04;;;;;;;10.10;9.07;;;15.30;99.90;;;;;;5042580;28;20032;-76
2021/06/30 00:04:29;;;;;;;10.75;9.18;;;15.30;99.90;;;;;;5032876;28;20026;-76
2021/06/30 00:06:55;;;;;;;14.68;10.30;;;15.20;99.90;;;;;;5031826;28;20041;-76
2021/06/30 00:09:20;;;;;;;9.43;8.13;;;15.30;99.90;;;;;;5031703;28;20024;-75
2021/06/30 00:11:46;;;;;;;11.32;9.00;;;15.30;99.90;;;;;;5031808;28;20022;-76
2021/06/30 00:14:13;;;;;;;13.13;9.07;;;15.20;99.90;;;;;;5036537;28;20143;-76
2021/06/30 00:16:39;;;;;;;10.27;9.20;;;15.20;99.90;;;;;;5040147;28;20150;-74
2021/06/30 00:19:10;;;;;;;9.85;8.90;;;15.30;99.90;;;;;;5050142;28;20033;-75
2021/06/30 00:21:36;;;;;;;8.90;8.00;;;15.30;99.90;;;;;;5050378;28;20159;-75
2021/06/30 00:24:01;;;;;;;10.80;9.07;;;15.40;99.90;;;;;;5051413;28;20064;-75
2021/06/30 00:26:27;;;;;;;12.23;8.23;;;15.50;99.90;;;;;;5051896;28;20471;-75
2021/06/30 00:28:52;;;;;;;9.93;7.93;;;15.50;99.90;;;;;;5032578;28;20119;-74
2021/06/30 00:31:18;;;;;;;9.25;7.88;;;15.70;99.90;;;;;;5031536;28;20036;-75
2021/06/30 00:33:44;;;;;;;9.90;8.75;;;15.60;99.90;;;;;;5031842;28;20022;-76
2021/06/30 00:36:11;;;;;;;12.55;8.57;;;15.40;99.90;;;;;;5036723;28;20032;-75
2021/06/30 00:38:37;;;;;;;9.90;8.88;;;15.50;99.90;;;;;;5055395;28;20036;-76
2021/06/30 00:41:03;;;;;;;10.23;9.13;;;15.40;99.90;;;;;;5050461;28;20029;-75
2021/06/30 00:43:28;;;;;;;14.88;9.18;;;15.40;99.90;;;;;;5050238;28;20547;-74
2021/06/30 00:45:54;;;;;;;12.00;8.82;;;15.40;99.90;;;;;;5039476;28;20053;-75
2021/06/30 00:48:20;;;;;;;11.82;9.60;;;15.40;99.90;;;;;;5031409;28;20025;-73
2021/06/30 00:50:45;;;;;;;16.33;10.02;;;15.40;99.90;;;;;;5031377;28;20028;-72
2021/06/30 00:53:11;;;;;;;12.15;10.88;;;15.30;99.90;;;;;;5030074;28;20060;-73
2021/06/30 00:55:38;;;;;;;14.15;10.93;;;15.20;99.90;;;;;;5045729;28;20049;-74
2021/06/30 00:58:04;;;;;;;13.45;10.85;;;15.30;99.90;;;;;;5030713;28;20475;-73
2021/06/30 01:00:29;;;;;;;13.43;11.07;;;15.30;99.90;;;;;;5031210;28;20033;-72
2021/06/30 01:02:55;;;;;;;15.20;11.18;;;15.40;99.90;;;;;;5043168;28;20033;-73
2021/06/30 01:05:20;;;;;;;13.27;10.73;;;15.30;99.90;;;;;;5030038;28;20028;-73
2021/06/30 01:07:46;;;;;;;11.90;10.70;;;15.30;99.90;;;;;;5030146;28;20022;-73
2021/06/30 01:10:12;;;;;;;11.77;10.52;;;15.50;99.90;;;;;;5031037;28;20053;-72
2021/06/30 01:12:38;;;;;;;10.85;9.75;;;15.40;99.90;;;;;;5031324;28;20029;-74
2021/06/30 01:15:11;;;;;;;14.63;11.55;;;15.40;99.90;;;;;;5032405;28;20022;-73
2021/06/30 01:17:37;;;;;;;13.77;11.05;;;15.40;99.90;;;;;;5032281;28;20034;-73
2021/06/30 01:20:06;;;;;;;16.45;11.93;;;15.30;99.90;;;;;;5031131;28;20027;-73
2021/06/30 01:25:07;;;;;;;13.97;10.53;;;15.40;99.90;;;;;;5009649;28;20589;-75
2021/06/30 01:27:33;;;;;;;13.30;11.63;;;15.30;99.90;;;;;;5014465;28;20033;-75
2021/06/30 01:29:59;;;;;;;16.10;12.93;;;15.30;99.90;;;;;;5015193;28;20018;-75
2021/06/30 01:32:25;;;;;;;13.13;11.40;;;15.20;99.90;;;;;;5014871;28;20031;-73
2021/06/30 01:34:50;;;;;;;15.63;12.77;;;15.30;99.90;;;;;;5014460;28;20022;-74
2021/06/30 01:37:16;;;;;;;18.15;13.23;;;15.30;99.90;;;;;;5002501;28;20030;-73
2021/06/30 01:39:42;;;;;;;16.00;12.10;;;15.30;99.90;;;;;;5001603;28;20458;-74
2021/06/30 01:42:08;;;;;;;14.75;11.80;;;15.20;99.90;;;;;;5008150;28;20026;-73
2021/06/30 01:44:33;;;;;;;14.45;13.05;;;15.10;99.90;;;;;;5008444;28;20018;-76
2021/06/30 01:46:59;;;;;;;15.48;13.13;;;15.20;99.90;;;;;;5000695;28;20022;-76
2021/06/30 01:49:24;;;;;;;14.15;12.63;;;15.30;99.90;;;;;;5002018;28;20037;-77
2021/06/30 01:51:50;;;;;;;15.40;12.15;;;15.30;99.90;;;;;;5007387;28;20022;-77
2021/06/30 01:54:16;;;;;;;14.13;12.32;;;15.30;99.90;;;;;;5007913;28;20033;-76
2021/06/30 01:56:46;;;;;;;15.32;12.45;;;15.40;99.90;;;;;;5014721;28;20026;-76
2021/06/30 01:59:14;;;;;;;17.63;13.00;;;15.50;99.90;;;;;;5012634;28;20038;-76
2021/06/30 02:01:40;;;;;;;13.50;12.20;;;15.30;99.90;;;;;;5003558;28;20065;-76
2021/06/30 02:04:06;;;;;;;15.15;12.68;;;15.40;99.90;;;;;;4999916;28;20054;-76
2021/06/30 02:06:44;;;;;;;14.88;13.38;;;15.40;99.90;;;;;;5005712;28;20070;-76
2021/06/30 02:09:11;;;;;;;14.75;13.25;;;15.20;99.90;;;;;;5008241;28;20080;-76
2021/06/30 02:11:37;;;;;;;15.77;13.77;;;15.30;99.90;;;;;;5004022;28;20458;-75
2021/06/30 02:14:06;;;;;;;15.85;13.75;;;15.30;99.90;;;;;;4999897;28;20026;-75
2021/06/30 02:16:33;;;;;;;16.67;13.80;;;15.30;99.90;;;;;;5001869;28;20034;-75
2021/06/30 02:19:04;;;;;;;17.13;14.35;;;15.20;99.90;;;;;;5008000;28;20022;-73
2021/06/30 02:21:30;;;;;;;19.40;13.32;;;15.10;99.90;;;;;;4993530;28;20081;-75
2021/06/30 02:23:55;;;;;;;16.25;14.13;;;15.10;99.90;;;;;;5017580;28;20635;-75
2021/06/30 02:26:21;;;;;;;15.85;12.80;;;15.20;99.90;;;;;;5025815;28;20037;-75
2021/06/30 02:28:46;;;;;;;13.07;11.68;;;15.30;99.90;;;;;;5020717;28;20080;-76
2021/06/30 02:31:12;;;;;;;15.20;12.43;;;15.50;99.90;;;;;;5022235;28;20029;-76
2021/06/30 02:33:37;;;;;;;17.88;14.48;;;15.60;99.90;;;;;;5027381;28;20022;-76
2021/06/30 02:36:03;;;;;;;15.30;13.70;;;15.30;99.90;;;;;;5024496;28;20029;-75
2021/06/30 02:38:29;;;;;;;17.10;13.55;;;15.00;99.90;;;;;;5002792;28;20079;-75
2021/06/30 02:40:55;;;;;;;18.73;14.55;;;14.90;99.90;;;;;;5022147;28;20092;-75
2021/06/30 02:43:20;;;;;;;15.43;12.63;;;14.80;99.90;;;;;;5009145;28;20041;-75
2021/06/30 02:45:46;;;;;;;18.17;13.32;;;14.90;99.90;;;;;;5007286;28;20017;-75
2021/06/30 02:48:11;;;;;;;19.60;15.05;;;14.80;99.90;;;;;;5002923;28;20036;-75
2021/06/30 02:50:37;;;;;;;17.83;14.13;;;14.80;99.90;;;;;;5005092;28;20028;-75
2021/06/30 02:53:03;;;;;;;18.42;15.07;;;14.80;99.90;;;;;;5027408;28;20021;-76
2021/06/30 02:55:28;;;;;;;18.10;15.13;;;14.90;99.90;;;;;;5009073;28;20120;-75
2021/06/30 02:57:54;;;;;;;16.30;14.60;;;14.80;99.90;;;;;;5028988;28;20030;-75
2021/06/30 03:00:25;;;;;;;18.42;15.05;;;14.70;99.90;;;;;;5024007;28;20022;-74
2021/06/30 03:02:51;;;;;;;18.85;14.80;;;14.80;99.90;;;;;;5005013;28;20026;-77
2021/06/30 03:05:17;;;;;;;19.63;15.98;;;14.80;99.90;;;;;;5008085;28;20079;-76
2021/06/30 03:07:43;;;;;;;19.10;16.60;;;14.90;99.90;;;;;;5030597;28;20029;-76
2021/06/30 03:10:11;;;;;;;19.17;17.20;;;14.70;99.90;;;;;;5010211;28;20025;-76
2021/06/30 03:12:37;;;;;;;19.23;16.33;;;14.70;99.90;;;;;;5010054;28;20029;-76
2021/06/30 03:15:05;;;;;;;21.90;17.30;;;14.80;99.90;;;;;;5007525;28;20060;-75
2021/06/30 03:17:33;;;;;;;21.08;17.38;;;14.80;99.90;;;;;;5002021;28;20025;-75
2021/06/30 03:19:59;;;;;;;20.02;17.90;;;14.80;99.90;;;;;;5019937;28;20487;-75
2021/06/30 03:22:24;;;;;;;22.88;19.30;;;14.80;99.90;;;;;;5008533;28;20244;-76
2021/06/30 03:24:50;;;;;;;21.20;16.98;;;14.80;99.90;;;;;;5008445;28;20036;-75
2021/06/30 03:27:15;;;;;;;21.13;18.65;;;14.90;99.90;;;;;;5001712;28;20025;-76
2021/06/30 03:29:41;;;;;;;22.45;18.10;;;15.00;99.90;;;;;;5002266;28;20073;-75
2021/06/30 03:32:07;;;;;;;20.05;17.67;;;14.90;99.90;;;;;;5008388;28;20105;-76
2021/06/30 03:34:32;;;;;;;21.85;19.45;;;14.90;99.90;;;;;;4995350;28;20065;-74
2021/06/30 03:36:58;;;;;;;23.85;17.90;;;15.00;99.90;;;;;;5018649;28;20495;-74
2021/06/30 03:39:23;;;;;;;23.23;17.90;;;15.00;99.90;;;;;;5015471;28;20505;-75
2021/06/30 03:41:49;;;;;;;20.38;18.13;;;15.00;99.90;;;;;;5001709;28;20040;-74
2021/06/30 03:44:14;;;;;;;20.60;17.38;;;14.80;99.90;;;;;;5032431;28;20449;-74
2021/06/30 03:46:40;;;;;;;23.15;17.75;;;14.80;99.90;;;;;;5018822;28;20475;-74
2021/06/30 03:49:06;;;;;;;23.33;19.15;;;14.80;99.90;;;;;;5013569;28;20044;-74
2021/06/30 03:51:31;;;;;;;21.33;17.90;;;14.90;99.90;;;;;;5014623;28;20025;-74
2021/06/30 03:53:57;;;;;;;23.60;18.63;;;14.80;99.90;;;;;;5023222;28;20475;-74
2021/06/30 03:56:26;;;;;;;19.70;16.75;;;14.80;99.90;;;;;;5017735;28;20029;-74
2021/06/30 03:58:53;;;;;;;18.88;16.33;;;14.90;99.90;;;;;;5020002;28;20060;-73
2021/06/30 04:01:20;;;;;;;22.73;17.05;;;14.90;99.90;;;;;;5007725;28;20026;-73
2021/06/30 04:03:49;;;;;;;18.63;16.65;;;14.90;99.90;;;;;;5025192;28;20108;-73
2021/06/30 04:06:15;;;;;;;19.13;16.27;;;14.90;99.90;;;;;;5018656;28;20021;-73
2021/06/30 04:08:40;;;;;;;18.60;15.48;;;15.00;99.90;;;;;;5032108;28;20155;-75
2021/06/30 04:11:06;;;;;;;17.67;15.77;;;15.10;99.90;;;;;;5007905;28;20080;-74
2021/06/30 04:13:31;;;;;;;19.85;15.35;;;15.20;99.90;;;;;;5025176;28;20025;-74
2021/06/30 04:15:57;;;;;;;18.25;15.82;;;15.20;99.90;;;;;;5001185;28;20029;-76
2021/06/30 04:18:22;;;;;;;18.40;15.55;;;15.20;99.90;;;;;;5001248;28;20368;-75
2021/06/30 04:20:48;;;;;;;18.73;15.43;;;15.20;99.90;;;;;;5031541;28;20037;-75
2021/06/30 04:23:14;;;;;;;17.55;15.68;;;15.10;99.90;;;;;;5018478;28;20030;-75
2021/06/30 04:25:39;;;;;;;17.02;14.95;;;15.10;99.90;;;;;;5031853;28;20029;-75
2021/06/30 04:28:05;;;;;;;16.17;14.55;;;15.10;99.90;;;;;;5031823;28;20071;-75
2021/06/30 04:30:31;;;;;;;17.80;15.15;;;15.00;99.90;;;;;;5012071;28;20057;-75
2021/06/30 04:32:57;;;;;;;17.25;15.38;;;15.20;99.90;;;;;;5014097;28;20018;-75
2021/06/30 04:35:23;;;;;;;15.90;14.13;;;15.20;99.90;;;;;;5018448;28;20032;-74
2021/06/30 04:37:48;;;;;;;16.85;13.52;;;15.10;99.90;;;;;;5031864;28;20025;-75
2021/06/30 04:40:14;;;;;;;12.45;10.85;;;15.20;99.90;;;;;;5018421;28;20037;-75
2021/06/30 04:42:40;;;;;;;13.55;12.15;;;15.10;99.90;;;;;;5018381;28;20404;-75
2021/06/30 04:45:06;;;;;;;16.52;12.13;;;15.20;99.90;;;;;;5018688;28;20410;-75
2021/06/30 04:47:32;;;;;;;11.45;10.35;;;15.10;99.90;;;;;;5018613;28;20026;-74
2021/06/30 04:49:57;;;;;;;11.20;10.10;;;15.10;99.90;;;;;;5024968;28;20018;-74
2021/06/30 04:52:23;;;;;;;10.88;9.60;;;15.20;99.90;;;;;;5025178;28;20437;-73
2021/06/30 04:54:48;;;;;;;11.63;10.20;;;15.20;99.90;;;;;;5007348;28;20133;-75
2021/06/30 04:57:14;;;;;;;10.00;8.50;;;15.20;99.90;;;;;;5011913;28;20025;-74
2021/06/30 04:59:39;;;;;;;11.45;8.88;;;15.30;99.90;;;;;;5026421;28;20116;-74
2021/06/30 05:02:05;;;;;;;12.80;8.88;;;15.20;99.90;;;;;;5010016;28;20025;-74
2021/06/30 05:04:31;;;;;;;9.35;7.60;;;15.20;99.90;;;;;;5004502;28;20041;-74
2021/06/30 05:06:56;;;;;;;9.73;7.38;;;15.40;99.90;;;;;;5006178;28;20030;-74
2021/06/30 05:09:22;;;;;;;11.45;7.85;;;15.40;99.90;;;;;;5028894;28;20084;-76
2021/06/30 05:11:47;;;;;;;9.88;7.53;;;15.30;99.90;;;;;;5027043;28;20025;-74
2021/06/30 05:14:13;;;;;;;10.02;7.53;;;15.50;99.90;;;;;;5021974;28;20030;-75
2021/06/30 05:16:38;;;;;;;8.07;7.00;;;15.30;99.90;;;;;;5006030;28;20045;-74
2021/06/30 05:19:04;;;;;;;8.23;6.85;;;15.40;99.90;;;;;;5010715;28;20121;-75
2021/06/30 05:21:30;;;;;;;8.38;7.22;;;15.60;99.90;;;;;;5026660;28;20037;-74
2021/06/30 05:23:55;;;;;;;8.25;6.63;;;15.70;99.90;;;;;;5016934;28;20034;-73
2021/06/30 05:26:21;;;;;;;9.15;6.88;;;15.80;99.90;;;;;;5026749;28;20029;-74
2021/06/30 05:28:46;;;;;;;9.32;7.80;;;15.90;99.90;;;;;;5021790;28;20021;-74
2021/06/30 05:31:12;;;;;;;9.80;8.80;;;15.90;99.90;;;;;;5006268;28;20026;-74
2021/06/30 05:33:37;;;;;;;18.95;8.85;;;15.80;99.90;;;;;;5028182;28;20022;-74
2021/06/30 05:36:04;;;;;;;11.07;8.63;;;15.70;99.90;;;;;;5008032;28;20033;-74
2021/06/30 05:38:29;;;;;;;10.45;8.75;;;15.80;99.90;;;;;;5003866;28;20032;-74
2021/06/30 05:40:55;;;;;;;10.35;9.00;;;15.90;99.90;;;;;;5006280;28;20026;-74
2021/06/30 05:43:21;;;;;;;9.65;8.65;;;16.00;99.90;;;;;;5018654;28;20471;-75
2021/06/30 05:45:47;;;;;;;11.82;8.35;;;16.10;99.90;;;;;;5033717;28;20043;-73
2021/06/30 05:48:13;;;;;;;9.90;7.38;;;16.30;99.90;;;;;;5020998;28;20092;-75
2021/06/30 05:50:39;;;;;;;10.00;7.40;;;16.20;99.90;;;;;;5032802;28;20029;-75
2021/06/30 05:53:05;;;;;;;12.05;6.97;;;16.00;99.90;;;;;;5020950;28;20513;-74
2021/06/30 05:55:30;;;;;;;7.78;6.60;;;16.00;99.90;;;;;;5014673;28;20478;-74
2021/06/30 05:57:56;;;;;;;7.03;5.80;;;16.10;99.90;;;;;;5029698;28;20080;-74
2021/06/30 06:00:22;;;;;;;5.93;5.28;;;16.00;99.90;;;;;;5007840;28;20091;-74
2021/06/30 06:02:49;;;;;;;9.38;5.60;;;16.00;99.90;;;;;;5030108;28;20104;-74
2021/06/30 06:05:15;;;;;;;10.40;5.80;;;15.90;99.90;;;;;;5050317;28;20024;-74
2021/06/30 06:07:41;;;;;;;7.85;5.55;;;15.90;99.90;;;;;;5033516;28;20018;-74
2021/06/30 06:10:09;;;;;;;7.75;5.57;;;15.80;99.90;;;;;;5042457;28;20072;-74
2021/06/30 06:12:35;;;;;;;6.68;5.22;;;15.80;99.90;;;;;;5017981;28;20068;-76
2021/06/30 06:15:02;;;;;;;7.38;5.68;;;15.80;99.90;;;;;;5024812;28;20018;-74
2021/06/30 06:17:28;;;;;;;6.07;5.03;;;15.80;99.90;;;;;;5029151;28;20024;-74
2021/06/30 06:19:53;;;;;;;6.35;5.72;;;15.80;99.90;;;;;;5023743;28;20100;-74
2021/06/30 06:22:19;;;;;;;8.45;5.90;;;16.00;99.90;;;;;;5029031;28;20650;-74
2021/06/30 06:24:44;;;;;;;7.97;5.50;;;16.10;99.90;;;;;;5038637;28;20124;-74
2021/06/30 06:27:10;;;;;;;6.85;4.97;;;16.10;99.90;;;;;;5020629;28;20143;-74
2021/06/30 06:29:37;;;;;;;7.15;4.90;;;16.00;99.90;;;;;;5036009;28;20029;-75
2021/06/30 06:32:03;;;;;;;5.93;5.05;;;16.10;99.90;;;;;;5030581;28;20025;-75
2021/06/30 06:34:28;;;;;;;6.78;5.50;;;16.10;99.90;;;;;;5028666;28;20022;-73
2021/06/30 06:36:54;;;;;;;6.82;5.75;;;16.20;99.90;;;;;;5028634;28;20053;-73
2021/06/30 06:39:21;;;;;;;14.30;5.70;;;16.20;99.90;;;;;;5025340;28;20025;-75
2021/06/30 06:41:48;;;;;;;6.45;5.85;;;16.20;99.90;;;;;;5020199;28;20029;-74
2021/06/30 06:44:14;;;;;;;7.93;6.03;;;16.10;99.90;;;;;;5021754;28;20037;-74
2021/06/30 06:46:40;;;;;;;8.55;6.22;;;16.20;99.90;;;;;;5009147;28;20096;-73
2021/06/30 06:49:07;;;;;;;8.52;5.93;;;16.10;99.90;;;;;;5013477;28;20022;-70
2021/06/30 06:51:32;;;;;;;7.38;6.30;;;16.10;99.90;;;;;;5012313;28;20030;-73
2021/06/30 06:53:58;;;;;;;6.63;5.95;;;16.20;99.90;;;;;;5024635;28;20044;-73
2021/06/30 06:56:26;;;;;;;9.68;6.10;;;16.30;99.90;;;;;;5030986;28;20079;-74
2021/06/30 06:58:53;;;;;;;9.02;6.00;;;16.20;99.90;;;;;;5020473;28;20548;-73
2021/06/30 07:01:19;;;;;;;8.07;6.40;;;16.10;99.90;;;;;;5031131;28;20025;-74
2021/06/30 07:03:45;;;;;;;6.50;5.90;;;16.00;99.90;;;;;;5015139;28;20053;-74
2021/06/30 07:06:11;;;;;;;6.45;5.65;;;16.00;99.90;;;;;;5032212;28;20163;-74
2021/06/30 07:08:36;;;;;;;7.32;6.15;;;15.90;99.90;;;;;;5033280;28;20026;-73
2021/06/30 07:11:02;;;;;;;6.78;5.90;;;16.00;99.90;;;;;;5015048;28;20025;-73
2021/06/30 07:13:28;;;;;;;6.70;5.25;;;16.00;99.90;;;;;;5032859;28;20426;-73
2021/06/30 07:15:54;;;;;;;6.18;5.45;;;15.90;99.90;;;;;;5032728;28;20025;-73
2021/06/30 07:18:19;;;;;;;5.32;4.93;;;15.90;99.90;;;;;;5032787;28;20065;-74
2021/06/30 07:20:45;;;;;;;5.70;5.20;;;15.80;99.90;;;;;;5032464;28;20410;-74
2021/06/30 07:23:11;;;;;;;7.15;5.80;;;15.80;99.90;;;;;;5033137;28;20040;-75
2021/06/30 07:25:38;;;;;;;6.07;5.47;;;15.80;99.90;;;;;;5032644;28;20498;-74
2021/06/30 07:28:05;;;;;;;7.25;5.10;;;15.90;99.90;;;;;;5032649;28;20390;-74
2021/06/30 07:30:30;;;;;;;7.53;5.80;;;15.90;99.90;;;;;;5032246;28;20109;-74
2021/06/30 07:32:56;;;;;;;6.18;5.53;;;16.10;99.90;;;;;;5032480;28;20104;-74
2021/06/30 07:35:22;;;;;;;6.63;5.50;;;16.10;99.90;;;;;;5032494;28;20037;-75
2021/06/30 07:37:48;;;;;;;7.05;5.47;;;16.30;99.90;;;;;;5032577;28;20025;-75
2021/06/30 07:40:14;;;;;;;8.27;5.68;;;16.60;99.90;;;;;;5032164;28;20021;-74
2021/06/30 07:42:40;;;;;;;5.47;4.97;;;16.50;99.90;;;;;;5032343;28;20152;-74
2021/06/30 07:45:06;;;;;;;5.93;5.43;;;16.50;99.90;;;;;;5032232;28;20026;-74
2021/06/30 07:47:31;;;;;;;5.75;5.20;;;16.50;99.90;;;;;;5032415;28;20021;-74
2021/06/30 07:49:57;;;;;;;6.22;5.07;;;16.40;99.90;;;;;;5032026;28;20390;-75
2021/06/30 07:52:23;;;;;;;5.15;4.47;;;16.20;99.90;;;;;;5014685;28;20028;-74
2021/06/30 07:54:48;;;;;;;4.50;4.05;;;16.10;99.90;;;;;;5032031;28;20024;-74
2021/06/30 07:57:14;;;;;;;6.15;4.05;;;16.10;99.90;;;;;;5014423;28;20056;-75
2021/06/30 07:59:39;;;;;;;4.93;4.43;;;16.10;99.90;;;;;;5032034;28;20483;-75
2021/06/30 08:02:06;;;;;;;4.57;3.42;;;16.10;99.90;;;;;;5031775;28;20068;-75
2021/06/30 08:04:31;;;;;;;9.25;5.68;;;16.00;99.90;;;;;;5013233;28;20029;-74
2021/06/30 08:06:57;;;;;;;6.57;5.90;;;15.90;99.90;;;;;;5012389;28;20038;-74
2021/06/30 08:09:22;;;;;;;4.53;4.13;;;15.80;99.90;;;;;;5011999;28;20033;-75
2021/06/30 08:11:48;;;;;;;8.82;4.30;;;15.60;99.90;;;;;;5012283;28;20531;-75
2021/06/30 08:14:13;;;;;;;5.03;4.53;;;15.70;99.90;;;;;;5012421;28;20079;-75
2021/06/30 08:16:39;;;;;;;5.82;5.10;;;15.70;99.90;;;;;;5012086;28;20033;-74
2021/06/30 08:19:05;;;;;;;5.47;4.95;;;15.60;99.90;;;;;;5011890;28;20033;-75
2021/06/30 08:21:30;;;;;;;6.25;5.65;;;15.50;99.90;;;;;;5012020;28;20017;-75
2021/06/30 08:23:56;;;;;;;8.20;6.30;;;15.80;99.90;;;;;;4994114;28;20025;-74
2021/06/30 08:26:21;;;;;;;6.13;5.63;;;15.80;99.90;;;;;;5024203;28;20065;-74
2021/06/30 08:28:47;;;;;;;6.55;5.95;;;16.00;99.90;;;;;;5031497;28;20026;-74
2021/06/30 08:31:13;;;;;;;6.97;6.32;;;16.10;99.90;;;;;;5031609;28;20018;-73
2021/06/30 08:33:39;;;;;;;7.10;5.53;;;16.60;99.90;;;;;;5027242;28;20784;-74
2021/06/30 08:36:05;;;;;;;6.30;5.80;;;17.00;99.90;;;;;;5030549;28;20074;-74
2021/06/30 08:38:31;;;;;;;5.28;4.88;;;17.50;99.90;;;;;;5019712;28;20033;-74
2021/06/30 08:40:58;;;;;;;6.13;4.60;;;17.80;99.90;;;;;;5018517;28;20544;-74
2021/06/30 08:43:24;;;;;;;6.13;5.15;;;17.60;99.90;;;;;;5030715;28;20052;-75
2021/06/30 08:45:50;;;;;;;4.80;4.28;;;17.20;99.90;;;;;;5036681;28;20483;-74
2021/06/30 08:48:17;;;;;;;5.00;4.50;;;17.30;99.90;;;;;;5038655;28;20021;-74
2021/06/30 08:50:46;;;;;;;4.80;4.35;;;16.90;99.90;;;;;;5020181;28;20026;-75
2021/06/30 08:53:13;;;;;;;4.85;4.30;;;17.00;99.90;;;;;;5034991;28;20029;-74
2021/06/30 08:55:46;;;;;;;4.68;4.28;;;17.00;99.90;;;;;;5027450;28;20039;-74
2021/06/30 08:58:13;;;;;;;4.32;3.95;;;17.00;99.90;;;;;;5011245;28;20064;-74
2021/06/30 09:00:41;;;;;;;4.18;3.88;;;16.70;99.90;;;;;;5019637;28;20030;-75
2021/06/30 09:03:14;;;;;;;3.80;3.50;;;16.60;99.90;;;;;;5008079;28;20060;-74
2021/06/30 09:06:01;;;;;;;3.85;3.55;;;16.30;99.90;;;;;;5007427;28;20046;-74
2021/06/30 09:08:52;;;;;;;4.18;3.83;;;16.30;99.90;;;;;;5010072;28;20046;-75
2021/06/30 09:11:20;;;;;;;3.78;3.47;;;16.40;99.90;;;;;;5024557;28;20037;-75
2021/06/30 09:13:47;;;;;;;4.53;3.47;;;16.50;99.90;;;;;;5005709;28;20034;-75
2021/06/30 09:16:12;;;;;;;4.32;3.38;;;16.40;99.90;;;;;;5018480;28;20160;-75
2021/06/30 09:18:40;;;;;;;3.78;3.47;;;16.50;99.90;;;;;;5031646;28;20088;-75
2021/06/30 09:21:20;;;;;;;3.22;2.92;;;16.70;99.90;;;;;;5009727;28;20041;-75
2021/06/30 09:23:58;;;;;;;3.33;3.10;;;16.60;99.90;;;;;;5021123;28;20042;-74
2021/06/30 09:26:24;;;;;;;3.42;3.13;;;16.60;99.90;;;;;;5030650;28;20032;-75
2021/06/30 09:29:00;;;;;;;3.42;2.75;;;16.70;99.90;;;;;;5024642;28;20028;-74
2021/06/30 09:31:26;;;;;;;5.32;3.22;;;16.80;99.90;;;;;;5038120;28;20022;-75
2021/06/30 09:33:53;;;;;;;3.72;3.42;;;16.70;99.90;;;;;;5007391;28;20029;-74
2021/06/30 09:36:20;;;;;;;5.00;3.25;;;16.60;99.90;;;;;;5025336;28;20480;-75
2021/06/30 09:38:47;;;;;;;4.47;3.05;;;16.40;99.90;;;;;;5013881;28;20121;-74
2021/06/30 09:41:27;;;;;;;5.25;3.35;;;16.30;99.90;;;;;;5013525;28;20546;-74
2021/06/30 09:44:05;;;;;;;3.10;2.80;;;16.40;99.90;;;;;;5026337;28;20491;-75
2021/06/30 09:46:31;;;;;;;4.80;3.03;;;16.40;99.90;;;;;;5014625;28;20041;-74
2021/06/30 09:49:02;;;;;;;2.65;2.45;;;16.50;99.90;;;;;;5007692;28;20025;-75
2021/06/30 09:51:28;;;;;;;2.67;2.47;;;16.50;99.90;;;;;;5021360;28;20020;-75
2021/06/30 09:54:04;;;;;;;2.40;2.20;;;16.70;99.90;;;;;;5006277;28;20108;-75
2021/06/30 09:56:33;;;;;;;4.07;2.10;;;17.20;99.90;;;;;;5034796;28;20454;-74
2021/06/30 09:59:16;;;;;;;2.65;2.13;;;18.00;99.90;;;;;;5003642;28;20442;-75
2021/06/30 10:01:43;;;;;;;3.05;2.13;;;18.20;99.90;;;;;;5025748;28;20287;-74
2021/06/30 10:04:20;;;;;;;2.20;2.00;;;18.30;99.90;;;;;;5010483;28;20462;-75
2021/06/30 10:06:46;;;;;;;2.40;1.98;;;18.50;99.90;;;;;;5014603;28;20021;-74
2021/06/30 10:09:13;;;;;;;3.45;1.58;;;19.20;99.90;;;;;;5045190;28;20029;-75
2021/06/30 10:11:39;;;;;;;3.90;1.80;;;19.50;99.90;;;;;;5035694;28;20028;-74
2021/06/30 10:14:05;;;;;;;2.67;1.92;;;19.30;99.90;;;;;;5027082;28;20628;-75
2021/06/30 10:16:30;;;;;;;1.92;1.50;;;19.50;99.90;;;;;;5026038;28;20028;-75
2021/06/30 10:18:58;;;;;;;1.52;1.42;;;20.00;99.90;;;;;;5021065;28;20022;-75
2021/06/30 10:21:30;;;;;;;2.40;1.98;;;20.30;99.90;;;;;;5014860;28;20052;-75
2021/06/30 10:23:57;;;;;;;1.92;1.73;;;19.50;99.90;;;;;;5016965;28;20033;-75
2021/06/30 10:26:23;;;;;;;1.70;1.60;;;19.00;99.90;;;;;;5030012;28;20035;-75
2021/06/30 10:28:53;;;;;;;1.52;1.40;;;18.60;99.90;;;;;;5040522;28;20014;-75
2021/06/30 10:31:20;;;;;;;1.30;1.20;;;18.80;99.90;;;;;;5054904;28;20024;-75
2021/06/30 10:34:02;;;;;;;1.73;1.40;;;19.00;99.90;;;;;;5023429;28;20029;-75
2021/06/30 10:36:51;;;;;;;1.98;1.45;;;19.10;99.90;;;;;;5033465;28;20030;-75
2021/06/30 10:39:40;;;;;;;1.67;1.45;;;19.20;99.90;;;;;;5014321;28;20025;-75
2021/06/30 10:42:36;;;;;;;1.60;1.50;;;19.20;99.90;;;;;;5026496;28;20590;-75
2021/06/30 10:45:17;;;;;;;1.48;1.38;;;18.90;99.90;;;;;;5040950;28;20064;-75
2021/06/30 10:47:47;;;;;;;1.40;1.30;;;18.50;99.90;;;;;;5025990;28;20441;-75
2021/06/30 10:50:35;;;;;;;2.60;1.35;;;18.20;99.90;;;;;;5021226;28;20072;-75
2021/06/30 10:53:03;;;;;;;2.88;1.30;;;18.10;99.90;;;;;;5042776;28;20100;-75
2021/06/30 10:58:19;;;;;;;1.27;1.00;;;17.90;99.90;;;;;;5039421;28;20029;-75
2021/06/30 11:01:05;;;;;;;2.08;1.10;;;18.10;99.90;;;;;;5023077;28;20505;-74
2021/06/30 11:03:42;;;;;;;1.03;0.80;;;18.30;99.90;;;;;;5034659;28;20052;-74
2021/06/30 11:06:14;;;;;;;1.38;0.95;;;18.50;99.90;;;;;;5028186;28;20460;-75
2021/06/30 11:09:00;;;;;;;2.15;1.30;;;18.70;99.90;;;;;;5020442;28;20024;-75
2021/06/30 11:11:35;;;;;;;2.15;0.90;;;19.30;99.90;;;;;;5024508;28;20028;-75
2021/06/30 11:14:13;;;;;;;0.98;0.80;;;19.70;99.90;;;;;;5016165;28;20037;-75
2021/06/30 11:16:48;;;;;;;1.20;0.70;;;19.50;99.90;;;;;;5044543;28;20022;-75
2021/06/30 11:21:53;;;;;;;0.80;0.60;;;19.40;99.90;;;;;;5031440;28;20034;-75
2021/06/30 11:24:39;;;;;;;1.35;0.77;;;19.20;99.90;;;;;;5013304;28;20082;-75
2021/06/30 11:27:08;;;;;;;1.83;0.90;;;18.70;99.90;;;;;;5022819;28;20482;-75
2021/06/30 11:29:47;;;;;;;1.02;0.90;;;18.90;99.90;;;;;;5033299;28;20264;-75
2021/06/30 11:32:42;;;;;;;1.45;0.80;;;19.40;99.90;;;;;;5023644;28;20036;-75
2021/06/30 11:35:11;;;;;;;0.70;0.70;;;19.80;99.90;;;;;;5026387;28;20022;-75
2021/06/30 11:37:38;;;;;;;2.92;0.90;;;20.40;99.90;;;;;;5024049;28;20020;-75
2021/06/30 11:40:12;;;;;;;0.80;0.63;;;19.40;99.90;;;;;;5040441;28;20057;-75
2021/06/30 11:42:41;;;;;;;4.07;0.80;;;18.90;99.90;;;;;;5019819;28;20037;-75
2021/06/30 11:45:27;;;;;;;1.65;0.80;;;18.80;99.90;;;;;;5039451;28;20047;-75
2021/06/30 11:47:54;;;;;;;6.13;0.70;;;18.90;99.90;;;;;;5037453;28;20112;-75
2021/06/30 11:50:22;;;;;;;1.02;0.55;;;18.90;99.90;;;;;;5022087;28;20030;-74
2021/06/30 11:52:49;;;;;;;0.90;0.50;;;19.00;99.90;;;;;;5038401;28;20490;-75
2021/06/30 11:55:16;;;;;;;0.88;0.40;;;19.10;99.90;;;;;;5026230;28;20426;-75
2021/06/30 11:57:55;;;;;;;1.90;0.70;;;19.20;99.90;;;;;;5044219;28;20053;-75
2021/06/30 12:00:22;;;;;;;2.78;0.60;;;19.50;99.90;;;;;;5031271;28;20421;-75
2021/06/30 12:02:49;;;;;;;0.68;0.57;;;19.70;99.90;;;;;;5024772;28;20040;-75
2021/06/30 12:05:16;;;;;;;0.77;0.63;;;20.00;99.90;;;;;;5032601;28;20052;-75
2021/06/30 12:07:44;;;;;;;0.73;0.65;;;20.40;99.90;;;;;;5035270;28;20053;-75
2021/06/30 12:10:10;;;;;;;0.90;0.52;;;20.50;99.90;;;;;;5036176;28;20056;-75
2021/06/30 12:12:36;;;;;;;1.25;0.60;;;20.20;99.90;;;;;;5035072;28;20156;-75
2021/06/30 12:15:09;;;;;;;1.10;0.60;;;20.10;99.90;;;;;;5021780;28;20055;-75
2021/06/30 12:17:35;;;;;;;1.25;0.60;;;20.20;99.90;;;;;;5023730;28;20505;-75
2021/06/30 12:20:04;;;;;;;1.60;0.60;;;20.80;99.90;;;;;;5015903;28;20029;-75
2021/06/30 12:22:36;;;;;;;1.48;1.02;;;20.20;99.90;;;;;;5013105;28;20030;-75
2021/06/30 12:25:15;;;;;;;1.27;0.60;;;20.40;99.90;;;;;;5026372;28;20120;-75
2021/06/30 12:27:51;;;;;;;0.75;0.50;;;20.10;99.90;;;;;;5005515;28;20029;-75
2021/06/30 12:30:21;;;;;;;;;;;20.10;99.90;;;;;;5001623;28;20025;-76
2021/06/30 12:32:50;;;;;;;0.68;0.60;;;20.30;99.90;;;;;;5020756;28;19913;-75
2021/06/30 12:35:22;;;;;;;1.27;0.70;;;20.20;99.90;;;;;;5026024;28;20033;-75
2021/06/30 12:38:10;;;;;;;2.50;0.60;;;19.90;99.90;;;;;;5008333;28;20025;-75
2021/06/30 12:40:37;;;;;;;0.55;0.50;;;20.00;99.90;;;;;;5022002;28;20022;-75
2021/06/30 12:43:16;;;;;;;1.52;0.60;;;19.90;99.90;;;;;;5019209;28;20028;-75
2021/06/30 12:45:44;;;;;;;1.75;0.70;;;20.10;99.90;;;;;;5020914;28;20022;-75
2021/06/30 12:48:16;;;;;;;0.60;0.60;;;20.50;99.90;;;;;;5008193;28;20018;-75
2021/06/30 12:50:44;;;;;;;0.88;0.60;;;20.50;99.90;;;;;;5025226;28;20026;-75
2021/06/30 12:53:13;;;;;;;0.60;0.60;;;20.30;99.90;;;;;;5019335;28;20079;-75